sensor_id;sensor_type;location;lat;lon;timestamp;temperature;humidity
15930;DHT22;8064;51.142;4.780;2024-02-14T00:01:40;10.00;99.90
15930;DHT22;8064;51.142;4.780;2024-02-14T00:04:06;10.10;99.90
15930;DHT22;8064;51.142;4.780;2024-02-14T00:06:36;10.10;99.90
15930;DHT22;8064;51.142;4.780;2024-02-14T00:09:02;10.10;99.90
15930;DHT22;8064;51.142;4.780;2024-02-14T00:11:28;10.10;99.90
15930;DHT22;8064;51.142;4.780;2024-02-14T00:13:54;10.10;99.90
15930;DHT22;8064;51.142;4.780;2024-02-14T00:16:22;10.10;99.90
15930;DHT22;8064;51.142;4.780;2024-02-14T00:18:47;10.10;99.90
15930;DHT22;8064;51.142;4.780;2024-02-14T00:21:13;10.20;99.90
15930;DHT22;8064;51.142;4.780;2024-02-14T00:23:39;10.20;99.90
15930;DHT22;8064;51.142;4.780;2024-02-14T00:26:04;10.20;99.90
15930;DHT22;8064;51.142;4.780;2024-02-14T00:28:30;10.20;99.90
15930;DHT22;8064;51.142;4.780;2024-02-14T00:30:56;10.20;99.90
15930;DHT22;8064;51.142;4.780;2024-02-14T00:33:22;10.20;99.90
15930;DHT22;8064;51.142;4.780;2024-02-14T00:35:48;10.20;99.90
15930;DHT22;8064;51.142;4.780;2024-02-14T00:38:13;10.20;99.90
15930;DHT22;8064;51.142;4.780;2024-02-14T00:40:39;10.20;99.90
15930;DHT22;8064;51.142;4.780;2024-02-14T00:43:05;10.30;99.90
15930;DHT22;8064;51.142;4.780;2024-02-14T00:45:30;10.30;99.90
15930;DHT22;8064;51.142;4.780;2024-02-14T00:47:56;10.30;99.90
15930;DHT22;8064;51.142;4.780;2024-02-14T00:50:22;10.30;99.90
15930;DHT22;8064;51.142;4.780;2024-02-14T00:52:48;10.30;99.90
15930;DHT22;8064;51.142;4.780;2024-02-14T00:55:13;10.30;99.90
15930;DHT22;8064;51.142;4.780;2024-02-14T00:57:39;10.30;99.90
15930;DHT22;8064;51.142;4.780;2024-02-14T01:00:06;10.40;99.90
15930;DHT22;8064;51.142;4.780;2024-02-14T01:02:32;10.30;99.90
15930;DHT22;8064;51.142;4.780;2024-02-14T01:04:58;10.40;99.90
15930;DHT22;8064;51.142;4.780;2024-02-14T01:07:24;10.40;99.90
15930;DHT22;8064;51.142;4.780;2024-02-14T01:09:50;10.40;99.90
15930;DHT22;8064;51.142;4.780;2024-02-14T01:12:16;10.40;99.90
15930;DHT22;8064;51.142;4.780;2024-02-14T01:14:42;10.40;99.90
15930;DHT22;8064;51.142;4.780;2024-02-14T01:17:08;10.40;99.90
15930;DHT22;8064;51.142;4.780;2024-02-14T01:19:33;10.50;99.90
15930;DHT22;8064;51.142;4.780;2024-02-14T01:22:00;10.50;99.90
15930;DHT22;8064;51.142;4.780;2024-02-14T01:24:25;10.50;99.90
15930;DHT22;8064;51.142;4.780;2024-02-14T01:26:53;10.50;99.90
15930;DHT22;8064;51.142;4.780;2024-02-14T01:29:20;10.50;99.90
15930;DHT22;8064;51.142;4.780;2024-02-14T01:31:46;10.50;99.90
15930;DHT22;8064;51.142;4.780;2024-02-14T01:34:12;10.50;99.90
15930;DHT22;8064;51.142;4.780;2024-02-14T01:36:38;10.50;99.90
15930;DHT22;8064;51.142;4.780;2024-02-14T01:39:04;10.50;99.90
15930;DHT22;8064;51.142;4.780;2024-02-14T01:41:33;10.50;99.90
15930;DHT22;8064;51.142;4.780;2024-02-14T01:43:58;10.50;99.90
15930;DHT22;8064;51.142;4.780;2024-02-14T01:46:25;10.50;99.90
15930;DHT22;8064;51.142;4.780;2024-02-14T01:48:51;10.50;99.90
15930;DHT22;8064;51.142;4.780;2024-02-14T01:51:18;10.50;99.90
15930;DHT22;8064;51.142;4.780;2024-02-14T01:53:45;10.50;99.90
15930;DHT22;8064;51.142;4.780;2024-02-14T01:56:12;10.50;99.90
15930;DHT22;8064;51.142;4.780;2024-02-14T01:58:38;10.50;99.90
15930;DHT22;8064;51.142;4.780;2024-02-14T02:01:04;10.50;99.90
15930;DHT22;8064;51.142;4.780;2024-02-14T02:03:30;10.50;99.90
15930;DHT22;8064;51.142;4.780;2024-02-14T02:06:01;10.50;99.90
15930;DHT22;8064;51.142;4.780;2024-02-14T02:08:27;10.60;99.90
15930;DHT22;8064;51.142;4.780;2024-02-14T02:10:52;10.50;99.90
15930;DHT22;8064;51.142;4.780;2024-02-14T02:13:18;10.60;99.90
15930;DHT22;8064;51.142;4.780;2024-02-14T02:15:45;10.60;99.90
15930;DHT22;8064;51.142;4.780;2024-02-14T02:18:11;10.60;99.90
15930;DHT22;8064;51.142;4.780;2024-02-14T02:20:37;10.60;99.90
15930;DHT22;8064;51.142;4.780;2024-02-14T02:23:03;10.60;99.90
15930;DHT22;8064;51.142;4.780;2024-02-14T02:25:29;10.70;99.90
15930;DHT22;8064;51.142;4.780;2024-02-14T02:27:54;10.70;99.90
15930;DHT22;8064;51.142;4.780;2024-02-14T02:30:22;10.70;99.90
15930;DHT22;8064;51.142;4.780;2024-02-14T02:32:48;10.70;99.90
15930;DHT22;8064;51.142;4.780;2024-02-14T02:35:16;10.70;99.90
15930;DHT22;8064;51.142;4.780;2024-02-14T02:37:41;10.70;99.90
15930;DHT22;8064;51.142;4.780;2024-02-14T02:40:09;10.60;99.90
15930;DHT22;8064;51.142;4.780;2024-02-14T02:42:36;10.60;99.90
15930;DHT22;8064;51.142;4.780;2024-02-14T02:45:02;10.60;99.90
15930;DHT22;8064;51.142;4.780;2024-02-14T02:47:31;10.60;99.90
15930;DHT22;8064;51.142;4.780;2024-02-14T02:49:57;10.60;99.90
15930;DHT22;8064;51.142;4.780;2024-02-14T02:52:25;10.60;99.90
15930;DHT22;8064;51.142;4.780;2024-02-14T02:54:51;10.60;99.90
15930;DHT22;8064;51.142;4.780;2024-02-14T02:57:18;10.70;99.90
15930;DHT22;8064;51.142;4.780;2024-02-14T02:59:44;10.70;99.90
15930;DHT22;8064;51.142;4.780;2024-02-14T03:02:11;10.70;99.90
15930;DHT22;8064;51.142;4.780;2024-02-14T03:04:38;10.70;99.90
15930;DHT22;8064;51.142;4.780;2024-02-14T03:07:04;10.70;99.90
15930;DHT22;8064;51.142;4.780;2024-02-14T03:09:32;10.70;99.90
15930;DHT22;8064;51.142;4.780;2024-02-14T03:11:58;10.70;99.90
15930;DHT22;8064;51.142;4.780;2024-02-14T03:14:24;10.70;99.90
15930;DHT22;8064;51.142;4.780;2024-02-14T03:16:50;10.70;99.90
15930;DHT22;8064;51.142;4.780;2024-02-14T03:19:16;10.70;99.90
15930;DHT22;8064;51.142;4.780;2024-02-14T03:21:42;10.70;99.90
15930;DHT22;8064;51.142;4.780;2024-02-14T03:24:08;10.60;99.90
15930;DHT22;8064;51.142;4.780;2024-02-14T03:26:36;10.60;99.90
15930;DHT22;8064;51.142;4.780;2024-02-14T03:29:03;10.60;99.90
15930;DHT22;8064;51.142;4.780;2024-02-14T03:31:35;10.60;99.90
15930;DHT22;8064;51.142;4.780;2024-02-14T03:34:01;10.60;99.90
15930;DHT22;8064;51.142;4.780;2024-02-14T03:36:28;10.50;99.90
15930;DHT22;8064;51.142;4.780;2024-02-14T03:38:56;10.50;99.90
15930;DHT22;8064;51.142;4.780;2024-02-14T03:41:22;10.50;99.90
15930;DHT22;8064;51.142;4.780;2024-02-14T03:43:48;10.50;99.90
15930;DHT22;8064;51.142;4.780;2024-02-14T03:46:18;10.50;99.90
15930;DHT22;8064;51.142;4.780;2024-02-14T03:48:46;10.50;99.90
15930;DHT22;8064;51.142;4.780;2024-02-14T03:51:13;10.50;99.90
15930;DHT22;8064;51.142;4.780;2024-02-14T03:53:39;10.50;99.90
15930;DHT22;8064;51.142;4.780;2024-02-14T03:56:05;10.50;99.90
15930;DHT22;8064;51.142;4.780;2024-02-14T03:58:33;10.60;99.90
15930;DHT22;8064;51.142;4.780;2024-02-14T04:01:03;10.50;99.90
15930;DHT22;8064;51.142;4.780;2024-02-14T04:03:29;10.60;99.90
15930;DHT22;8064;51.142;4.780;2024-02-14T04:05:55;10.60;99.90
15930;DHT22;8064;51.142;4.780;2024-02-14T04:08:21;10.60;99.90
15930;DHT22;8064;51.142;4.780;2024-02-14T04:10:47;10.60;99.90
15930;DHT22;8064;51.142;4.780;2024-02-14T04:13:16;10.60;99.90
15930;DHT22;8064;51.142;4.780;2024-02-14T04:15:41;10.60;99.90
15930;DHT22;8064;51.142;4.780;2024-02-14T04:18:08;10.60;99.90
15930;DHT22;8064;51.142;4.780;2024-02-14T04:20:35;10.60;99.90
15930;DHT22;8064;51.142;4.780;2024-02-14T04:23:01;10.60;99.90
15930;DHT22;8064;51.142;4.780;2024-02-14T04:25:26;10.60;99.90
15930;DHT22;8064;51.142;4.780;2024-02-14T04:27:52;10.60;99.90
15930;DHT22;8064;51.142;4.780;2024-02-14T04:30:18;10.60;99.90
15930;DHT22;8064;51.142;4.780;2024-02-14T04:32:44;10.60;99.90
15930;DHT22;8064;51.142;4.780;2024-02-14T04:35:09;10.60;99.90
15930;DHT22;8064;51.142;4.780;2024-02-14T04:37:35;10.60;99.90
15930;DHT22;8064;51.142;4.780;2024-02-14T04:40:02;10.60;99.90
15930;DHT22;8064;51.142;4.780;2024-02-14T04:42:29;10.60;99.90
15930;DHT22;8064;51.142;4.780;2024-02-14T04:44:55;10.60;99.90
15930;DHT22;8064;51.142;4.780;2024-02-14T04:47:21;10.60;99.90
15930;DHT22;8064;51.142;4.780;2024-02-14T04:49:47;10.60;99.90
15930;DHT22;8064;51.142;4.780;2024-02-14T04:52:12;10.60;99.90
15930;DHT22;8064;51.142;4.780;2024-02-14T04:54:38;10.50;99.90
15930;DHT22;8064;51.142;4.780;2024-02-14T04:57:04;10.60;99.90
15930;DHT22;8064;51.142;4.780;2024-02-14T04:59:30;10.60;99.90
15930;DHT22;8064;51.142;4.780;2024-02-14T05:01:56;10.60;99.90
15930;DHT22;8064;51.142;4.780;2024-02-14T05:04:22;10.60;99.90
15930;DHT22;8064;51.142;4.780;2024-02-14T05:06:48;10.60;99.90
15930;DHT22;8064;51.142;4.780;2024-02-14T05:09:15;10.60;99.90
15930;DHT22;8064;51.142;4.780;2024-02-14T05:11:41;10.60;99.90
15930;DHT22;8064;51.142;4.780;2024-02-14T05:14:07;10.60;99.90
15930;DHT22;8064;51.142;4.780;2024-02-14T05:16:33;10.60;99.90
15930;DHT22;8064;51.142;4.780;2024-02-14T05:18:59;10.60;99.90
15930;DHT22;8064;51.142;4.780;2024-02-14T05:21:26;10.70;99.90
15930;DHT22;8064;51.142;4.780;2024-02-14T05:23:53;10.70;99.90
15930;DHT22;8064;51.142;4.780;2024-02-14T05:26:19;10.70;99.90
15930;DHT22;8064;51.142;4.780;2024-02-14T05:28:44;10.70;99.90
15930;DHT22;8064;51.142;4.780;2024-02-14T05:31:10;10.70;99.90
15930;DHT22;8064;51.142;4.780;2024-02-14T05:33:36;10.70;99.90
15930;DHT22;8064;51.142;4.780;2024-02-14T05:36:02;10.70;99.90
15930;DHT22;8064;51.142;4.780;2024-02-14T05:38:28;10.70;99.90
15930;DHT22;8064;51.142;4.780;2024-02-14T05:40:55;10.80;99.90
15930;DHT22;8064;51.142;4.780;2024-02-14T05:43:21;10.80;99.90
15930;DHT22;8064;51.142;4.780;2024-02-14T05:45:47;10.80;99.90
15930;DHT22;8064;51.142;4.780;2024-02-14T05:48:13;10.80;99.90
15930;DHT22;8064;51.142;4.780;2024-02-14T05:50:40;10.80;99.90
15930;DHT22;8064;51.142;4.780;2024-02-14T05:53:06;10.80;99.90
15930;DHT22;8064;51.142;4.780;2024-02-14T05:55:32;10.90;99.90
15930;DHT22;8064;51.142;4.780;2024-02-14T05:57:58;10.90;99.90
15930;DHT22;8064;51.142;4.780;2024-02-14T06:00:25;10.80;99.90
15930;DHT22;8064;51.142;4.780;2024-02-14T06:02:50;10.90;99.90
15930;DHT22;8064;51.142;4.780;2024-02-14T06:05:17;10.90;99.90
15930;DHT22;8064;51.142;4.780;2024-02-14T06:07:43;10.90;99.90
15930;DHT22;8064;51.142;4.780;2024-02-14T06:10:15;10.90;99.90
15930;DHT22;8064;51.142;4.780;2024-02-14T06:12:41;10.90;99.90
15930;DHT22;8064;51.142;4.780;2024-02-14T06:15:08;10.90;99.90
15930;DHT22;8064;51.142;4.780;2024-02-14T06:17:34;11.00;99.90
15930;DHT22;8064;51.142;4.780;2024-02-14T06:20:00;11.00;99.90
15930;DHT22;8064;51.142;4.780;2024-02-14T06:22:31;11.00;99.90
15930;DHT22;8064;51.142;4.780;2024-02-14T06:24:57;11.00;99.90
15930;DHT22;8064;51.142;4.780;2024-02-14T06:27:23;11.00;99.90
15930;DHT22;8064;51.142;4.780;2024-02-14T06:29:49;11.10;99.90
15930;DHT22;8064;51.142;4.780;2024-02-14T06:32:15;11.10;99.90
15930;DHT22;8064;51.142;4.780;2024-02-14T06:34:41;11.10;99.90
15930;DHT22;8064;51.142;4.780;2024-02-14T06:37:06;11.10;99.90
15930;DHT22;8064;51.142;4.780;2024-02-14T06:39:32;11.10;99.90
15930;DHT22;8064;51.142;4.780;2024-02-14T06:41:58;11.10;99.90
15930;DHT22;8064;51.142;4.780;2024-02-14T06:44:24;11.20;99.90
15930;DHT22;8064;51.142;4.780;2024-02-14T06:46:50;11.20;99.90
15930;DHT22;8064;51.142;4.780;2024-02-14T06:49:16;11.20;99.90
15930;DHT22;8064;51.142;4.780;2024-02-14T06:51:42;11.20;99.90
15930;DHT22;8064;51.142;4.780;2024-02-14T06:54:08;11.20;99.90
15930;DHT22;8064;51.142;4.780;2024-02-14T06:56:35;11.30;99.90
15930;DHT22;8064;51.142;4.780;2024-02-14T06:59:01;11.30;99.90
15930;DHT22;8064;51.142;4.780;2024-02-14T07:01:29;11.30;99.90
15930;DHT22;8064;51.142;4.780;2024-02-14T07:03:55;11.30;99.90
15930;DHT22;8064;51.142;4.780;2024-02-14T07:06:21;11.40;99.90
15930;DHT22;8064;51.142;4.780;2024-02-14T07:08:47;11.40;99.90
15930;DHT22;8064;51.142;4.780;2024-02-14T07:11:14;11.40;99.90
15930;DHT22;8064;51.142;4.780;2024-02-14T07:13:41;11.40;99.90
15930;DHT22;8064;51.142;4.780;2024-02-14T07:16:07;11.50;99.90
15930;DHT22;8064;51.142;4.780;2024-02-14T07:18:33;11.40;99.90
15930;DHT22;8064;51.142;4.780;2024-02-14T07:20:59;11.40;99.90
15930;DHT22;8064;51.142;4.780;2024-02-14T07:23:25;11.40;99.90
15930;DHT22;8064;51.142;4.780;2024-02-14T07:25:52;11.40;99.90
15930;DHT22;8064;51.142;4.780;2024-02-14T07:28:18;11.40;99.90
15930;DHT22;8064;51.142;4.780;2024-02-14T07:30:44;11.40;99.90
15930;DHT22;8064;51.142;4.780;2024-02-14T07:33:09;11.40;99.90
15930;DHT22;8064;51.142;4.780;2024-02-14T07:35:37;11.50;99.90
15930;DHT22;8064;51.142;4.780;2024-02-14T07:38:03;11.50;99.90
15930;DHT22;8064;51.142;4.780;2024-02-14T07:40:29;11.50;99.90
15930;DHT22;8064;51.142;4.780;2024-02-14T07:42:57;11.50;99.90
15930;DHT22;8064;51.142;4.780;2024-02-14T07:45:22;11.50;99.90
15930;DHT22;8064;51.142;4.780;2024-02-14T07:47:50;11.50;99.90
15930;DHT22;8064;51.142;4.780;2024-02-14T07:50:16;11.50;99.90
15930;DHT22;8064;51.142;4.780;2024-02-14T07:52:44;11.60;99.90
15930;DHT22;8064;51.142;4.780;2024-02-14T07:55:10;11.50;99.90
15930;DHT22;8064;51.142;4.780;2024-02-14T07:57:39;11.60;99.90
15930;DHT22;8064;51.142;4.780;2024-02-14T08:00:06;11.60;99.90
15930;DHT22;8064;51.142;4.780;2024-02-14T08:02:34;11.60;99.90
15930;DHT22;8064;51.142;4.780;2024-02-14T08:05:00;11.60;99.90
15930;DHT22;8064;51.142;4.780;2024-02-14T08:07:26;11.60;99.90
15930;DHT22;8064;51.142;4.780;2024-02-14T08:09:51;11.70;99.90
15930;DHT22;8064;51.142;4.780;2024-02-14T08:12:17;11.70;99.90
15930;DHT22;8064;51.142;4.780;2024-02-14T08:14:43;11.80;99.90
15930;DHT22;8064;51.142;4.780;2024-02-14T08:17:09;11.70;99.90
15930;DHT22;8064;51.142;4.780;2024-02-14T08:19:34;11.80;99.90
15930;DHT22;8064;51.142;4.780;2024-02-14T08:22:00;11.80;99.90
15930;DHT22;8064;51.142;4.780;2024-02-14T08:24:27;11.80;99.90
15930;DHT22;8064;51.142;4.780;2024-02-14T08:26:53;11.80;99.90
15930;DHT22;8064;51.142;4.780;2024-02-14T08:29:19;11.80;99.90
15930;DHT22;8064;51.142;4.780;2024-02-14T08:31:45;11.80;99.90
15930;DHT22;8064;51.142;4.780;2024-02-14T08:34:10;11.90;99.90
15930;DHT22;8064;51.142;4.780;2024-02-14T08:36:36;11.90;99.90
15930;DHT22;8064;51.142;4.780;2024-02-14T08:39:08;11.90;99.90
15930;DHT22;8064;51.142;4.780;2024-02-14T08:41:36;11.90;99.90
15930;DHT22;8064;51.142;4.780;2024-02-14T08:44:02;11.80;99.90
15930;DHT22;8064;51.142;4.780;2024-02-14T08:46:30;11.80;99.90
15930;DHT22;8064;51.142;4.780;2024-02-14T08:48:56;11.80;99.90
15930;DHT22;8064;51.142;4.780;2024-02-14T08:51:22;11.80;99.90
15930;DHT22;8064;51.142;4.780;2024-02-14T08:53:49;11.80;99.90
15930;DHT22;8064;51.142;4.780;2024-02-14T08:56:20;11.80;99.90
15930;DHT22;8064;51.142;4.780;2024-02-14T08:58:46;11.80;99.90
15930;DHT22;8064;51.142;4.780;2024-02-14T09:01:12;11.80;99.90
15930;DHT22;8064;51.142;4.780;2024-02-14T09:03:38;11.90;99.90
15930;DHT22;8064;51.142;4.780;2024-02-14T09:06:04;11.90;99.90
15930;DHT22;8064;51.142;4.780;2024-02-14T09:08:30;12.00;99.90
15930;DHT22;8064;51.142;4.780;2024-02-14T09:10:56;12.00;99.90
15930;DHT22;8064;51.142;4.780;2024-02-14T09:13:24;12.00;99.90
15930;DHT22;8064;51.142;4.780;2024-02-14T09:15:50;12.00;99.90
15930;DHT22;8064;51.142;4.780;2024-02-14T09:18:16;12.00;99.90
15930;DHT22;8064;51.142;4.780;2024-02-14T09:20:44;12.00;99.90
15930;DHT22;8064;51.142;4.780;2024-02-14T09:23:12;12.10;99.90
15930;DHT22;8064;51.142;4.780;2024-02-14T09:25:39;12.10;99.90
15930;DHT22;8064;51.142;4.780;2024-02-14T09:28:05;12.10;99.90
15930;DHT22;8064;51.142;4.780;2024-02-14T09:30:32;12.20;99.90
15930;DHT22;8064;51.142;4.780;2024-02-14T09:32:58;12.10;99.90
15930;DHT22;8064;51.142;4.780;2024-02-14T09:35:24;12.10;99.90
15930;DHT22;8064;51.142;4.780;2024-02-14T09:37:51;12.20;99.90
15930;DHT22;8064;51.142;4.780;2024-02-14T09:40:19;12.10;99.90
15930;DHT22;8064;51.142;4.780;2024-02-14T09:42:53;12.10;99.90
15930;DHT22;8064;51.142;4.780;2024-02-14T09:45:25;12.10;99.90
15930;DHT22;8064;51.142;4.780;2024-02-14T09:47:53;12.10;99.90
15930;DHT22;8064;51.142;4.780;2024-02-14T09:50:21;12.20;99.90
15930;DHT22;8064;51.142;4.780;2024-02-14T09:52:48;12.20;99.90
15930;DHT22;8064;51.142;4.780;2024-02-14T09:55:16;12.20;99.90
15930;DHT22;8064;51.142;4.780;2024-02-14T09:57:43;12.20;99.90
15930;DHT22;8064;51.142;4.780;2024-02-14T10:00:11;12.20;99.90
15930;DHT22;8064;51.142;4.780;2024-02-14T10:02:38;12.20;99.90
15930;DHT22;8064;51.142;4.780;2024-02-14T10:05:04;12.20;99.90
15930;DHT22;8064;51.142;4.780;2024-02-14T10:07:29;12.20;99.90
15930;DHT22;8064;51.142;4.780;2024-02-14T10:10:05;12.10;99.90
15930;DHT22;8064;51.142;4.780;2024-02-14T10:12:31;12.10;99.90
15930;DHT22;8064;51.142;4.780;2024-02-14T10:14:58;12.10;99.90
15930;DHT22;8064;51.142;4.780;2024-02-14T10:17:26;12.10;99.90
15930;DHT22;8064;51.142;4.780;2024-02-14T10:19:58;12.10;99.90
15930;DHT22;8064;51.142;4.780;2024-02-14T10:22:24;12.10;99.90
15930;DHT22;8064;51.142;4.780;2024-02-14T10:24:51;12.10;99.90
15930;DHT22;8064;51.142;4.780;2024-02-14T10:27:17;12.10;99.90
15930;DHT22;8064;51.142;4.780;2024-02-14T10:29:43;12.10;99.90
15930;DHT22;8064;51.142;4.780;2024-02-14T10:32:10;12.20;99.90
15930;DHT22;8064;51.142;4.780;2024-02-14T10:34:36;12.10;99.90
15930;DHT22;8064;51.142;4.780;2024-02-14T10:37:03;12.20;99.90
15930;DHT22;8064;51.142;4.780;2024-02-14T10:39:32;12.20;99.90
15930;DHT22;8064;51.142;4.780;2024-02-14T10:42:01;12.20;99.90
15930;DHT22;8064;51.142;4.780;2024-02-14T10:44:29;12.20;99.90
15930;DHT22;8064;51.142;4.780;2024-02-14T10:46:57;12.30;99.90
15930;DHT22;8064;51.142;4.780;2024-02-14T10:49:27;12.30;99.90
15930;DHT22;8064;51.142;4.780;2024-02-14T10:51:56;12.30;99.90
15930;DHT22;8064;51.142;4.780;2024-02-14T10:54:27;12.30;99.90
15930;DHT22;8064;51.142;4.780;2024-02-14T10:56:54;12.30;99.90
15930;DHT22;8064;51.142;4.780;2024-02-14T10:59:24;12.40;99.90
15930;DHT22;8064;51.142;4.780;2024-02-14T11:01:51;12.40;99.90
15930;DHT22;8064;51.142;4.780;2024-02-14T11:04:17;12.40;99.90
15930;DHT22;8064;51.142;4.780;2024-02-14T11:06:53;12.40;99.90
15930;DHT22;8064;51.142;4.780;2024-02-14T11:09:36;12.50;99.90
15930;DHT22;8064;51.142;4.780;2024-02-14T11:12:02;12.50;99.90
15930;DHT22;8064;51.142;4.780;2024-02-14T11:14:34;12.50;99.90
15930;DHT22;8064;51.142;4.780;2024-02-14T11:17:02;12.60;99.90
15930;DHT22;8064;51.142;4.780;2024-02-14T11:19:31;12.60;99.90
15930;DHT22;8064;51.142;4.780;2024-02-14T11:21:59;12.60;99.90
15930;DHT22;8064;51.142;4.780;2024-02-14T11:24:37;12.60;99.90
15930;DHT22;8064;51.142;4.780;2024-02-14T11:27:02;12.70;99.90
15930;DHT22;8064;51.142;4.780;2024-02-14T11:29:29;12.60;99.90
15930;DHT22;8064;51.142;4.780;2024-02-14T11:31:59;12.60;99.90
15930;DHT22;8064;51.142;4.780;2024-02-14T11:34:26;12.60;99.90
15930;DHT22;8064;51.142;4.780;2024-02-14T11:36:52;12.60;99.90
15930;DHT22;8064;51.142;4.780;2024-02-14T11:39:17;12.60;99.90
15930;DHT22;8064;51.142;4.780;2024-02-14T11:41:43;12.60;99.90
15930;DHT22;8064;51.142;4.780;2024-02-14T11:44:09;12.60;99.90
15930;DHT22;8064;51.142;4.780;2024-02-14T11:46:36;12.60;99.90
15930;DHT22;8064;51.142;4.780;2024-02-14T11:49:03;12.60;99.90
15930;DHT22;8064;51.142;4.780;2024-02-14T11:51:30;12.60;99.90
15930;DHT22;8064;51.142;4.780;2024-02-14T11:53:57;12.60;99.90
15930;DHT22;8064;51.142;4.780;2024-02-14T11:56:30;12.60;99.90
15930;DHT22;8064;51.142;4.780;2024-02-14T11:59:00;12.60;99.90
15930;DHT22;8064;51.142;4.780;2024-02-14T12:01:29;12.60;99.90
15930;DHT22;8064;51.142;4.780;2024-02-14T12:03:57;12.70;99.90
15930;DHT22;8064;51.142;4.780;2024-02-14T12:06:24;12.60;99.90
15930;DHT22;8064;51.142;4.780;2024-02-14T12:08:50;12.70;99.90
15930;DHT22;8064;51.142;4.780;2024-02-14T12:11:17;12.70;99.90
15930;DHT22;8064;51.142;4.780;2024-02-14T12:13:49;12.70;99.90
15930;DHT22;8064;51.142;4.780;2024-02-14T12:16:15;12.70;99.90
15930;DHT22;8064;51.142;4.780;2024-02-14T12:18:41;12.80;99.90
15930;DHT22;8064;51.142;4.780;2024-02-14T12:21:07;12.80;99.90
15930;DHT22;8064;51.142;4.780;2024-02-14T12:23:33;12.80;99.90
15930;DHT22;8064;51.142;4.780;2024-02-14T12:26:03;12.80;99.90
15930;DHT22;8064;51.142;4.780;2024-02-14T12:28:31;12.80;99.90
15930;DHT22;8064;51.142;4.780;2024-02-14T12:30:58;12.80;99.90
15930;DHT22;8064;51.142;4.780;2024-02-14T12:33:26;12.80;99.90
15930;DHT22;8064;51.142;4.780;2024-02-14T12:35:54;12.80;99.90
15930;DHT22;8064;51.142;4.780;2024-02-14T12:38:21;12.80;99.90
15930;DHT22;8064;51.142;4.780;2024-02-14T12:40:49;12.80;99.90
15930;DHT22;8064;51.142;4.780;2024-02-14T12:43:15;12.80;99.90
15930;DHT22;8064;51.142;4.780;2024-02-14T12:45:42;12.90;99.90
15930;DHT22;8064;51.142;4.780;2024-02-14T12:48:09;12.80;99.90
15930;DHT22;8064;51.142;4.780;2024-02-14T12:50:36;12.90;99.90
15930;DHT22;8064;51.142;4.780;2024-02-14T12:53:06;12.90;99.90
15930;DHT22;8064;51.142;4.780;2024-02-14T12:55:32;12.90;99.90
15930;DHT22;8064;51.142;4.780;2024-02-14T12:57:58;12.90;99.90
15930;DHT22;8064;51.142;4.780;2024-02-14T13:00:24;12.90;99.90
15930;DHT22;8064;51.142;4.780;2024-02-14T13:02:50;13.00;99.90
15930;DHT22;8064;51.142;4.780;2024-02-14T13:05:16;13.00;99.90
15930;DHT22;8064;51.142;4.780;2024-02-14T13:07:43;13.00;99.90
15930;DHT22;8064;51.142;4.780;2024-02-14T13:10:09;13.00;99.90
15930;DHT22;8064;51.142;4.780;2024-02-14T13:12:36;13.00;99.90
15930;DHT22;8064;51.142;4.780;2024-02-14T13:15:03;13.10;99.90
15930;DHT22;8064;51.142;4.780;2024-02-14T13:17:29;13.10;99.90
15930;DHT22;8064;51.142;4.780;2024-02-14T13:19:55;13.00;99.90
15930;DHT22;8064;51.142;4.780;2024-02-14T13:22:21;13.10;99.90
15930;DHT22;8064;51.142;4.780;2024-02-14T13:24:47;13.10;99.90
15930;DHT22;8064;51.142;4.780;2024-02-14T13:27:13;13.10;99.90
15930;DHT22;8064;51.142;4.780;2024-02-14T13:29:40;13.10;99.90
15930;DHT22;8064;51.142;4.780;2024-02-14T13:32:06;13.10;99.90
15930;DHT22;8064;51.142;4.780;2024-02-14T13:34:33;13.10;99.90
15930;DHT22;8064;51.142;4.780;2024-02-14T13:36:59;13.20;99.90
15930;DHT22;8064;51.142;4.780;2024-02-14T13:39:25;13.20;99.90
15930;DHT22;8064;51.142;4.780;2024-02-14T13:41:51;13.20;99.90
15930;DHT22;8064;51.142;4.780;2024-02-14T13:44:18;13.20;99.90
15930;DHT22;8064;51.142;4.780;2024-02-14T13:46:45;13.20;99.90
15930;DHT22;8064;51.142;4.780;2024-02-14T13:49:11;13.30;99.90
15930;DHT22;8064;51.142;4.780;2024-02-14T13:51:40;13.30;99.90
15930;DHT22;8064;51.142;4.780;2024-02-14T13:54:06;13.30;99.90
15930;DHT22;8064;51.142;4.780;2024-02-14T13:56:32;13.30;99.90
15930;DHT22;8064;51.142;4.780;2024-02-14T13:58:58;13.30;99.90
15930;DHT22;8064;51.142;4.780;2024-02-14T14:01:24;13.30;99.90
15930;DHT22;8064;51.142;4.780;2024-02-14T14:03:52;13.30;99.90
15930;DHT22;8064;51.142;4.780;2024-02-14T14:06:20;13.30;99.90
15930;DHT22;8064;51.142;4.780;2024-02-14T14:08:46;13.30;99.90
15930;DHT22;8064;51.142;4.780;2024-02-14T14:11:13;13.30;99.90
15930;DHT22;8064;51.142;4.780;2024-02-14T14:13:39;13.30;99.90
15930;DHT22;8064;51.142;4.780;2024-02-14T14:16:05;13.30;99.90
15930;DHT22;8064;51.142;4.780;2024-02-14T14:18:34;13.30;99.90
15930;DHT22;8064;51.142;4.780;2024-02-14T14:21:01;13.30;99.90
15930;DHT22;8064;51.142;4.780;2024-02-14T14:23:29;13.30;99.90
15930;DHT22;8064;51.142;4.780;2024-02-14T14:25:54;13.30;99.90
15930;DHT22;8064;51.142;4.780;2024-02-14T14:28:20;13.30;99.90
15930;DHT22;8064;51.142;4.780;2024-02-14T14:30:52;13.30;99.90
15930;DHT22;8064;51.142;4.780;2024-02-14T14:33:22;13.30;99.90
15930;DHT22;8064;51.142;4.780;2024-02-14T14:35:50;13.30;99.90
15930;DHT22;8064;51.142;4.780;2024-02-14T14:38:19;13.30;99.90
15930;DHT22;8064;51.142;4.780;2024-02-14T14:40:46;13.40;99.90
15930;DHT22;8064;51.142;4.780;2024-02-14T14:43:13;13.30;99.90
15930;DHT22;8064;51.142;4.780;2024-02-14T14:45:39;13.40;99.90
15930;DHT22;8064;51.142;4.780;2024-02-14T14:48:06;13.40;99.90
15930;DHT22;8064;51.142;4.780;2024-02-14T14:50:34;13.40;99.90
15930;DHT22;8064;51.142;4.780;2024-02-14T14:53:00;13.40;99.90
15930;DHT22;8064;51.142;4.780;2024-02-14T14:55:49;13.40;99.90
15930;DHT22;8064;51.142;4.780;2024-02-14T14:58:15;13.40;99.90
15930;DHT22;8064;51.142;4.780;2024-02-14T15:00:42;13.40;99.90
15930;DHT22;8064;51.142;4.780;2024-02-14T15:03:08;13.40;99.90
15930;DHT22;8064;51.142;4.780;2024-02-14T15:05:34;13.40;99.90
15930;DHT22;8064;51.142;4.780;2024-02-14T15:08:00;13.50;99.90
15930;DHT22;8064;51.142;4.780;2024-02-14T15:10:25;13.40;99.90
15930;DHT22;8064;51.142;4.780;2024-02-14T15:12:51;13.40;99.90
15930;DHT22;8064;51.142;4.780;2024-02-14T15:15:17;13.40;99.90
15930;DHT22;8064;51.142;4.780;2024-02-14T15:17:45;13.50;99.90
15930;DHT22;8064;51.142;4.780;2024-02-14T15:20:11;13.50;99.90
15930;DHT22;8064;51.142;4.780;2024-02-14T15:22:37;13.50;99.90
15930;DHT22;8064;51.142;4.780;2024-02-14T15:25:03;13.50;99.90
15930;DHT22;8064;51.142;4.780;2024-02-14T15:27:29;13.50;99.90
15930;DHT22;8064;51.142;4.780;2024-02-14T15:29:56;13.50;99.90
15930;DHT22;8064;51.142;4.780;2024-02-14T15:32:40;13.50;99.90
15930;DHT22;8064;51.142;4.780;2024-02-14T15:35:25;13.50;99.90
15930;DHT22;8064;51.142;4.780;2024-02-14T15:37:50;13.50;99.90
15930;DHT22;8064;51.142;4.780;2024-02-14T15:40:18;13.50;99.90
15930;DHT22;8064;51.142;4.780;2024-02-14T15:42:45;13.50;99.90